createdAt,value
2017-01-17T00:00:27.494Z,0
2017-01-17T00:01:28.225Z,0
2017-01-17T00:02:28.965Z,0
2017-01-17T00:03:29.713Z,0
2017-01-17T00:04:30.460Z,0
2017-01-17T00:05:31.203Z,0
2017-01-17T00:06:31.952Z,0
2017-01-17T00:07:32.700Z,0
2017-01-17T00:08:33.456Z,0
2017-01-17T00:09:34.186Z,0
2017-01-17T00:10:35.031Z,0
2017-01-17T00:11:35.839Z,0
2017-01-17T00:12:36.572Z,0
2017-01-17T00:13:37.324Z,0
2017-01-17T00:14:38.068Z,0
2017-01-17T00:15:38.814Z,0
2017-01-17T00:16:39.579Z,0
2017-01-17T00:17:40.307Z,0
2017-01-17T00:18:41.067Z,0
2017-01-17T00:19:41.830Z,0
2017-01-17T00:20:42.576Z,0
2017-01-17T00:21:43.305Z,0
2017-01-17T00:22:44.058Z,0
2017-01-17T00:23:44.826Z,0
2017-01-17T00:24:45.582Z,0
2017-01-17T00:25:46.345Z,0
2017-01-17T00:26:47.087Z,0
2017-01-17T00:27:47.827Z,0
2017-01-17T00:28:48.571Z,0
2017-01-17T00:29:49.333Z,0
2017-01-17T00:30:50.099Z,0
2017-01-17T00:31:50.840Z,0
2017-01-17T00:32:51.623Z,0
2017-01-17T00:33:52.383Z,0
2017-01-17T00:34:53.145Z,0
2017-01-17T00:35:53.881Z,0
2017-01-17T00:36:54.608Z,0
2017-01-17T00:37:55.435Z,0
2017-01-17T00:38:56.189Z,0
2017-01-17T00:39:56.919Z,0
2017-01-17T00:40:57.654Z,0
2017-01-17T00:41:58.411Z,0
2017-01-17T00:42:59.145Z,0
2017-01-17T00:43:59.883Z,0
2017-01-17T00:45:00.627Z,0
2017-01-17T00:46:01.382Z,0
2017-01-17T00:47:02.128Z,0
2017-01-17T00:48:02.867Z,0
2017-01-17T00:49:03.605Z,0
2017-01-17T00:50:04.362Z,0
2017-01-17T00:51:05.115Z,0
2017-01-17T00:52:05.875Z,0
2017-01-17T00:53:06.657Z,0
2017-01-17T00:54:07.409Z,0
2017-01-17T00:55:08.148Z,0
2017-01-17T00:56:08.901Z,0
2017-01-17T00:57:09.682Z,0
2017-01-17T00:58:10.418Z,0
2017-01-17T00:59:11.160Z,0
2017-01-17T01:00:11.916Z,0
2017-01-17T01:01:12.680Z,0
2017-01-17T01:02:13.427Z,0
2017-01-17T01:03:14.205Z,0
2017-01-17T01:04:14.945Z,0
2017-01-17T01:05:15.704Z,0
2017-01-17T01:06:16.464Z,0
2017-01-17T01:07:17.207Z,0
2017-01-17T01:08:17.926Z,0
2017-01-17T01:09:18.705Z,0
2017-01-17T01:10:19.454Z,0
2017-01-17T01:11:20.207Z,0
2017-01-17T01:12:20.948Z,0
2017-01-17T01:13:21.744Z,0
2017-01-17T01:14:22.525Z,0
2017-01-17T01:15:23.297Z,0
2017-01-17T01:16:24.057Z,0
2017-01-17T01:17:24.801Z,0
2017-01-17T01:18:25.563Z,0
2017-01-17T01:19:26.349Z,0
2017-01-17T01:20:27.130Z,0
2017-01-17T01:21:27.868Z,0
2017-01-17T01:22:28.666Z,0
2017-01-17T01:23:29.397Z,0
2017-01-17T01:24:30.153Z,0
2017-01-17T01:25:30.900Z,0
2017-01-17T01:26:31.634Z,0
2017-01-17T01:27:32.418Z,0
2017-01-17T01:28:33.161Z,0
2017-01-17T01:29:33.906Z,0
2017-01-17T01:30:34.653Z,0
2017-01-17T01:31:35.395Z,0
2017-01-17T01:32:36.143Z,0
2017-01-17T01:33:36.937Z,0
2017-01-17T01:34:37.691Z,0
2017-01-17T01:35:38.437Z,0
2017-01-17T01:36:39.192Z,0
2017-01-17T01:37:39.932Z,0
2017-01-17T01:38:40.686Z,0
2017-01-17T01:39:41.434Z,0
2017-01-17T01:40:42.185Z,0
2017-01-17T01:41:42.956Z,0
2017-01-17T01:42:43.717Z,0
2017-01-17T01:43:44.466Z,0
2017-01-17T01:44:45.210Z,0
2017-01-17T01:45:45.956Z,0
2017-01-17T01:46:46.711Z,0
2017-01-17T01:47:47.463Z,0
2017-01-17T01:48:48.197Z,0
2017-01-17T01:49:48.984Z,0
2017-01-17T01:50:49.729Z,0
2017-01-17T01:51:50.488Z,0
2017-01-17T01:52:51.226Z,0
2017-01-17T01:53:51.980Z,0
2017-01-17T01:54:52.727Z,0
2017-01-17T01:55:53.479Z,0
2017-01-17T01:56:54.231Z,0
2017-01-17T01:57:55.007Z,0
2017-01-17T01:58:55.756Z,0
2017-01-17T01:59:56.527Z,0
2017-01-17T02:00:57.300Z,0
2017-01-17T02:01:58.052Z,0
2017-01-17T02:02:58.787Z,0
2017-01-17T02:03:59.524Z,0
2017-01-17T02:05:00.301Z,0
2017-01-17T02:06:01.067Z,0
2017-01-17T02:07:01.833Z,0
2017-01-17T02:08:02.587Z,0
2017-01-17T02:09:03.339Z,0
2017-01-17T02:10:04.096Z,0
2017-01-17T02:11:04.840Z,0
2017-01-17T02:12:05.633Z,0
2017-01-17T02:13:06.360Z,0
2017-01-17T02:14:07.131Z,0
2017-01-17T02:15:07.887Z,0
2017-01-17T02:16:08.645Z,0
2017-01-17T02:17:09.385Z,0
2017-01-17T02:18:10.133Z,0
2017-01-17T02:19:10.868Z,0
2017-01-17T02:20:11.600Z,0
2017-01-17T02:21:12.352Z,0
2017-01-17T02:22:13.087Z,0
2017-01-17T02:23:13.840Z,0
2017-01-17T02:24:14.593Z,0
2017-01-17T02:25:15.341Z,0
2017-01-17T02:26:16.082Z,0
2017-01-17T02:27:16.847Z,0
2017-01-17T02:28:17.581Z,0
2017-01-17T02:29:18.326Z,0
2017-01-17T02:30:19.068Z,0
2017-01-17T02:31:19.816Z,0
2017-01-17T02:32:20.578Z,0
2017-01-17T02:33:21.345Z,0
2017-01-17T02:34:24.858Z,0
2017-01-17T02:35:25.599Z,0
2017-01-17T02:36:26.349Z,0
2017-01-17T02:37:27.087Z,0
2017-01-17T02:38:27.835Z,0
2017-01-17T02:39:28.585Z,0
2017-01-17T02:40:29.329Z,0
2017-01-17T02:41:30.068Z,0
2017-01-17T02:42:30.823Z,0
2017-01-17T02:43:31.561Z,0
2017-01-17T02:44:32.368Z,0
2017-01-17T02:45:33.158Z,0
2017-01-17T02:46:33.908Z,0
2017-01-17T02:47:34.659Z,0
2017-01-17T02:48:35.459Z,0
2017-01-17T02:49:36.225Z,0
2017-01-17T02:50:37.217Z,0
2017-01-17T02:51:37.968Z,0
2017-01-17T02:52:38.933Z,0
2017-01-17T02:53:39.697Z,0
2017-01-17T02:54:40.459Z,0
2017-01-17T02:55:41.235Z,0
2017-01-17T02:56:41.982Z,0
2017-01-17T02:57:42.724Z,0
2017-01-17T02:58:43.480Z,0
2017-01-17T02:59:44.221Z,0
2017-01-17T03:00:44.970Z,0
2017-01-17T03:01:45.724Z,0
2017-01-17T03:02:46.468Z,0
2017-01-17T03:03:47.249Z,0
2017-01-17T03:04:48.000Z,0
2017-01-17T03:05:48.741Z,0
2017-01-17T03:06:49.493Z,0
2017-01-17T03:07:50.260Z,0
2017-01-17T03:08:51.028Z,0
2017-01-17T03:09:51.780Z,0
2017-01-17T03:10:52.547Z,0
2017-01-17T03:11:53.284Z,0
2017-01-17T03:12:54.042Z,0
2017-01-17T03:13:54.799Z,0
2017-01-17T03:14:55.534Z,0
2017-01-17T03:15:56.290Z,0
2017-01-17T03:16:57.034Z,0
2017-01-17T03:17:57.790Z,0
2017-01-17T03:18:58.534Z,0
2017-01-17T03:19:59.281Z,0
2017-01-17T03:21:00.046Z,0
2017-01-17T03:22:00.779Z,0
2017-01-17T03:23:01.541Z,0
2017-01-17T03:24:02.311Z,0
2017-01-17T03:25:03.067Z,0
2017-01-17T03:26:03.802Z,0
2017-01-17T03:27:04.572Z,0
2017-01-17T03:28:05.308Z,0
2017-01-17T03:29:06.047Z,0
2017-01-17T03:30:06.840Z,0
2017-01-17T03:31:07.567Z,0
2017-01-17T03:32:08.324Z,0
2017-01-17T03:33:09.122Z,0
2017-01-17T03:34:09.870Z,0
2017-01-17T03:35:10.624Z,0
2017-01-17T03:36:11.362Z,0
2017-01-17T03:37:12.093Z,0
2017-01-17T03:38:12.841Z,0
2017-01-17T03:39:13.576Z,0
2017-01-17T03:40:14.312Z,0
2017-01-17T03:41:15.088Z,0
2017-01-17T03:42:15.827Z,0
2017-01-17T03:43:16.582Z,0
2017-01-17T03:44:17.327Z,0
2017-01-17T03:45:18.069Z,0
2017-01-17T03:46:18.814Z,0
2017-01-17T03:47:19.548Z,0
2017-01-17T03:48:20.327Z,0
2017-01-17T03:49:21.077Z,0
2017-01-17T03:50:21.834Z,0
2017-01-17T03:51:22.601Z,0
2017-01-17T03:52:23.350Z,0
2017-01-17T03:53:24.091Z,0
2017-01-17T03:54:24.830Z,0
2017-01-17T03:55:25.613Z,0
2017-01-17T03:56:26.359Z,0
2017-01-17T03:57:27.095Z,0
2017-01-17T03:58:27.837Z,0
2017-01-17T03:59:28.588Z,0
2017-01-17T04:00:29.334Z,0
2017-01-17T04:01:30.097Z,0
2017-01-17T04:02:30.868Z,0
2017-01-17T04:03:31.651Z,0
2017-01-17T04:04:32.412Z,0
2017-01-17T04:05:33.186Z,0
2017-01-17T04:06:33.948Z,0
2017-01-17T04:07:34.689Z,0
2017-01-17T04:08:35.425Z,0
2017-01-17T04:09:36.172Z,0
2017-01-17T04:10:36.934Z,0
2017-01-17T04:11:37.684Z,0
2017-01-17T04:12:38.432Z,0
2017-01-17T04:13:39.181Z,0
2017-01-17T04:14:39.965Z,0
2017-01-17T04:15:40.714Z,0
2017-01-17T04:16:41.445Z,0
2017-01-17T04:17:42.197Z,0
2017-01-17T04:18:42.950Z,0
2017-01-17T04:19:43.704Z,0
2017-01-17T04:20:44.452Z,0
2017-01-17T04:21:45.208Z,0
2017-01-17T04:22:45.962Z,0
2017-01-17T04:23:46.752Z,0
2017-01-17T04:24:47.499Z,0
2017-01-17T04:25:48.260Z,0
2017-01-17T04:26:49.029Z,0
2017-01-17T04:27:49.767Z,0
2017-01-17T04:28:50.512Z,0
2017-01-17T04:29:51.255Z,0
2017-01-17T04:30:52.006Z,0
2017-01-17T04:31:52.746Z,0
2017-01-17T04:32:53.512Z,0
2017-01-17T04:33:54.300Z,0
2017-01-17T04:34:55.042Z,0
2017-01-17T04:35:55.789Z,0
2017-01-17T04:36:56.523Z,0
2017-01-17T04:37:57.294Z,0
2017-01-17T04:38:58.046Z,0
2017-01-17T04:39:58.811Z,0
2017-01-17T04:40:59.605Z,0
2017-01-17T04:42:00.376Z,0
2017-01-17T04:43:01.122Z,0
2017-01-17T04:44:01.871Z,0
2017-01-17T04:45:02.631Z,0
2017-01-17T04:46:03.397Z,0
2017-01-17T04:47:04.128Z,0
2017-01-17T04:48:04.885Z,0
2017-01-17T04:49:05.631Z,0
2017-01-17T04:50:06.375Z,0
2017-01-17T04:51:07.122Z,0
2017-01-17T04:52:07.881Z,0
2017-01-17T04:53:08.659Z,0
2017-01-17T04:54:09.394Z,0
2017-01-17T04:55:10.130Z,0
2017-01-17T04:56:10.872Z,0
2017-01-17T04:57:11.633Z,0
2017-01-17T04:58:12.376Z,0
2017-01-17T04:59:13.137Z,0
2017-01-17T05:00:13.882Z,0
2017-01-17T05:01:14.645Z,0
2017-01-17T05:02:15.399Z,0
2017-01-17T05:03:16.127Z,0
2017-01-17T05:04:16.856Z,0
2017-01-17T05:05:17.623Z,0
2017-01-17T05:06:18.395Z,0
2017-01-17T05:07:19.140Z,0
2017-01-17T05:08:19.884Z,0
2017-01-17T05:09:20.639Z,0
2017-01-17T05:10:21.377Z,0
2017-01-17T05:11:22.105Z,0
2017-01-17T05:12:22.848Z,0
2017-01-17T05:13:23.581Z,0
2017-01-17T05:14:24.338Z,0
2017-01-17T05:15:25.207Z,0
2017-01-17T05:16:26.008Z,0
2017-01-17T05:17:27.207Z,0
2017-01-17T05:18:27.958Z,0
2017-01-17T05:19:28.709Z,0
2017-01-17T05:20:29.465Z,0
2017-01-17T05:21:30.215Z,0
2017-01-17T05:22:30.959Z,0
2017-01-17T05:23:31.736Z,0
2017-01-17T05:24:32.541Z,0
2017-01-17T05:25:33.329Z,0
2017-01-17T05:26:34.078Z,0
2017-01-17T05:27:34.856Z,0
2017-01-17T05:28:35.629Z,0
2017-01-17T05:29:36.382Z,0
2017-01-17T05:30:37.145Z,0
2017-01-17T05:31:37.905Z,0
2017-01-17T05:32:38.684Z,0
2017-01-17T05:33:39.432Z,0
2017-01-17T05:34:40.189Z,0
2017-01-17T05:35:40.941Z,0
2017-01-17T05:36:41.700Z,0
2017-01-17T05:37:42.444Z,0
2017-01-17T05:38:43.186Z,0
2017-01-17T05:39:43.938Z,0
2017-01-17T05:40:44.701Z,0
2017-01-17T05:41:45.459Z,0
2017-01-17T05:42:46.210Z,0
2017-01-17T05:43:46.981Z,0
2017-01-17T05:44:47.716Z,0
2017-01-17T05:45:48.491Z,0
2017-01-17T05:46:49.340Z,0
2017-01-17T05:47:50.110Z,0
2017-01-17T05:48:50.836Z,0
2017-01-17T05:49:51.589Z,0
2017-01-17T05:50:52.333Z,0
2017-01-17T05:51:53.109Z,0
2017-01-17T05:52:53.918Z,0
2017-01-17T05:53:54.652Z,0
2017-01-17T05:54:55.394Z,0
2017-01-17T05:55:56.191Z,0
2017-01-17T05:56:56.930Z,0
2017-01-17T05:57:57.693Z,0
2017-01-17T05:58:58.432Z,0
2017-01-17T05:59:59.183Z,0
2017-01-17T06:00:59.908Z,0
2017-01-17T06:02:00.649Z,0
2017-01-17T06:03:01.408Z,0
2017-01-17T06:04:02.160Z,0
2017-01-17T06:05:02.921Z,0
2017-01-17T06:06:03.681Z,0
2017-01-17T06:07:04.424Z,0
2017-01-17T06:08:05.166Z,0
2017-01-17T06:09:05.931Z,0
2017-01-17T06:10:06.792Z,0
2017-01-17T06:11:07.541Z,0
2017-01-17T06:12:08.313Z,0
2017-01-17T06:13:09.067Z,0
2017-01-17T06:14:09.816Z,0
2017-01-17T06:15:10.584Z,0
2017-01-17T06:16:11.324Z,0
2017-01-17T06:17:12.062Z,0
2017-01-17T06:18:12.821Z,0
2017-01-17T06:19:13.577Z,0
2017-01-17T06:20:14.338Z,0
2017-01-17T06:21:15.088Z,0
2017-01-17T06:22:15.833Z,0
2017-01-17T06:23:16.585Z,0
2017-01-17T06:24:17.360Z,0
2017-01-17T06:25:18.126Z,0
2017-01-17T06:26:18.855Z,0
2017-01-17T06:27:19.600Z,0
2017-01-17T06:28:20.345Z,0
2017-01-17T06:29:21.081Z,0
2017-01-17T06:30:21.849Z,0
2017-01-17T06:31:22.596Z,0
2017-01-17T06:32:23.346Z,0
2017-01-17T06:33:24.114Z,0
2017-01-17T06:34:24.877Z,0
2017-01-17T06:35:25.652Z,0
2017-01-17T06:36:26.399Z,0
2017-01-17T06:37:27.155Z,0
2017-01-17T06:38:27.928Z,0
2017-01-17T06:39:28.707Z,0
2017-01-17T06:40:29.463Z,0
2017-01-17T06:41:30.205Z,0
2017-01-17T06:42:30.992Z,0
2017-01-17T06:43:31.746Z,0
2017-01-17T06:44:32.501Z,0
2017-01-17T06:45:33.258Z,0
2017-01-17T06:46:34.003Z,0
2017-01-17T06:47:34.760Z,0
2017-01-17T06:48:35.501Z,0
2017-01-17T06:49:36.247Z,0
2017-01-17T06:50:36.989Z,0
2017-01-17T06:51:37.733Z,0
2017-01-17T06:52:38.486Z,0
2017-01-17T06:53:39.262Z,0
2017-01-17T06:54:40.018Z,0
2017-01-17T06:55:40.762Z,0
2017-01-17T06:56:41.571Z,0
2017-01-17T06:57:42.352Z,0
2017-01-17T06:58:43.128Z,0
2017-01-17T06:59:43.911Z,0
2017-01-17T07:00:44.675Z,0
2017-01-17T07:01:45.421Z,0
2017-01-17T07:02:46.167Z,0
2017-01-17T07:03:46.937Z,0
2017-01-17T07:04:47.716Z,0
2017-01-17T07:05:48.531Z,0
2017-01-17T07:06:49.274Z,0
2017-01-17T07:07:50.034Z,0
2017-01-17T07:08:50.797Z,0
2017-01-17T07:09:51.580Z,0
2017-01-17T07:10:52.328Z,0
2017-01-17T07:11:53.110Z,0
2017-01-17T07:12:53.863Z,0
2017-01-17T07:13:54.619Z,0
2017-01-17T07:14:55.366Z,0
2017-01-17T07:15:56.160Z,0
2017-01-17T07:16:56.900Z,0
2017-01-17T07:17:57.633Z,0
2017-01-17T07:18:58.386Z,0
2017-01-17T07:19:59.197Z,0
2017-01-17T07:20:59.970Z,5
2017-01-17T07:22:00.731Z,5
2017-01-17T07:23:01.481Z,5
2017-01-17T07:24:02.248Z,5
2017-01-17T07:25:03.024Z,5
2017-01-17T07:26:03.843Z,5
2017-01-17T07:27:04.604Z,5
2017-01-17T07:28:05.390Z,5
2017-01-17T07:29:06.163Z,5
2017-01-17T07:30:06.913Z,10
2017-01-17T07:31:07.688Z,10
2017-01-17T07:32:08.444Z,10
2017-01-17T07:33:09.187Z,10
2017-01-17T07:34:09.928Z,10
2017-01-17T07:35:10.714Z,15
2017-01-17T07:36:11.490Z,15
2017-01-17T07:37:12.251Z,15
2017-01-17T07:38:13.024Z,15
2017-01-17T07:39:13.816Z,15
2017-01-17T07:40:14.600Z,15
2017-01-17T07:41:15.354Z,15
2017-01-17T07:42:16.139Z,20
2017-01-17T07:43:16.911Z,20
2017-01-17T07:44:17.663Z,20
2017-01-17T07:45:18.423Z,25
2017-01-17T07:46:19.197Z,25
2017-01-17T07:47:19.969Z,25
2017-01-17T07:48:20.731Z,30
2017-01-17T07:49:21.491Z,30
2017-01-17T07:50:22.282Z,35
2017-01-17T07:51:23.023Z,35
2017-01-17T07:52:23.802Z,40
2017-01-17T07:53:24.542Z,40
2017-01-17T07:54:25.299Z,45
2017-01-17T07:55:26.051Z,50
2017-01-17T07:56:26.827Z,50
2017-01-17T07:57:27.577Z,50
2017-01-17T07:58:28.329Z,50
2017-01-17T07:59:29.122Z,50
2017-01-17T08:00:29.862Z,50
2017-01-17T08:01:30.601Z,50
2017-01-17T08:02:31.369Z,55
2017-01-17T08:03:32.167Z,55
2017-01-17T08:04:32.924Z,60
2017-01-17T08:05:33.699Z,65
2017-01-17T08:06:34.467Z,65
2017-01-17T08:07:35.245Z,65
2017-01-17T08:08:36.011Z,65
2017-01-17T08:09:36.759Z,70
2017-01-17T08:10:37.534Z,80
2017-01-17T08:11:38.270Z,85
2017-01-17T08:12:39.924Z,95
2017-01-17T08:13:41.644Z,105
2017-01-17T08:14:43.346Z,105
2017-01-17T08:15:45.038Z,105
2017-01-17T08:16:46.723Z,105
2017-01-17T08:17:48.387Z,110
2017-01-17T08:18:50.002Z,110
2017-01-17T08:19:51.483Z,120
2017-01-17T08:20:52.707Z,125
2017-01-17T08:21:53.472Z,125
2017-01-17T08:22:54.227Z,125
2017-01-17T08:23:54.984Z,125
2017-01-17T08:24:55.783Z,120
2017-01-17T08:25:56.558Z,120
2017-01-17T08:26:57.337Z,120
2017-01-17T08:27:58.069Z,115
2017-01-17T08:28:58.819Z,115
2017-01-17T08:29:59.595Z,110
2017-01-17T08:31:00.364Z,105
2017-01-17T08:32:01.127Z,100
2017-01-17T08:33:01.862Z,95
2017-01-17T08:34:02.606Z,90
2017-01-17T08:35:03.371Z,85
2017-01-17T08:36:04.161Z,85
2017-01-17T08:37:04.919Z,85
2017-01-17T08:38:05.652Z,85
2017-01-17T08:39:06.401Z,90
2017-01-17T08:40:07.159Z,90
2017-01-17T08:41:07.932Z,90
2017-01-17T08:42:08.728Z,90
2017-01-17T08:43:09.557Z,90
2017-01-17T08:44:10.363Z,90
2017-01-17T08:45:11.132Z,90
2017-01-17T08:46:11.862Z,85
2017-01-17T08:47:12.633Z,85
2017-01-17T08:48:13.366Z,85
2017-01-17T08:49:14.156Z,85
2017-01-17T08:50:14.926Z,90
2017-01-17T08:51:15.681Z,90
2017-01-17T08:52:16.448Z,95
2017-01-17T08:53:17.233Z,95
2017-01-17T08:54:18.008Z,95
2017-01-17T08:55:18.766Z,95
2017-01-17T08:56:19.551Z,100
2017-01-17T08:57:20.285Z,105
2017-01-17T08:58:21.054Z,110
2017-01-17T08:59:21.817Z,110
2017-01-17T09:00:22.584Z,110
2017-01-17T09:01:23.340Z,115
2017-01-17T09:02:24.095Z,120
2017-01-17T09:03:24.878Z,120
2017-01-17T09:04:25.645Z,125
2017-01-17T09:05:26.410Z,125
2017-01-17T09:06:27.158Z,130
2017-01-17T09:07:27.909Z,130
2017-01-17T09:08:28.685Z,130
2017-01-17T09:09:29.470Z,130
2017-01-17T09:10:30.237Z,125
2017-01-17T09:11:31.022Z,130
2017-01-17T09:12:31.769Z,130
2017-01-17T09:13:32.536Z,130
2017-01-17T09:14:33.300Z,130
2017-01-17T09:15:34.067Z,135
2017-01-17T09:16:34.846Z,140
2017-01-17T09:17:35.602Z,140
2017-01-17T09:18:36.361Z,135
2017-01-17T09:19:37.125Z,140
2017-01-17T09:20:37.911Z,140
2017-01-17T09:21:38.686Z,145
2017-01-17T09:22:39.540Z,145
2017-01-17T09:23:40.321Z,145
2017-01-17T09:24:41.087Z,145
2017-01-17T09:25:41.848Z,150
2017-01-17T09:26:42.634Z,140
2017-01-17T09:27:43.397Z,140
2017-01-17T09:28:44.162Z,145
2017-01-17T09:29:44.913Z,145
2017-01-17T09:30:45.654Z,155
2017-01-17T09:31:46.414Z,155
2017-01-17T09:32:47.168Z,165
2017-01-17T09:33:47.932Z,165
2017-01-17T09:34:48.678Z,170
2017-01-17T09:35:49.431Z,175
2017-01-17T09:36:50.166Z,180
2017-01-17T09:37:50.920Z,175
2017-01-17T09:38:51.678Z,175
2017-01-17T09:39:52.438Z,175
2017-01-17T09:40:53.197Z,175
2017-01-17T09:41:53.944Z,175
2017-01-17T09:42:54.715Z,175
2017-01-17T09:43:55.496Z,175
2017-01-17T09:44:56.241Z,170
2017-01-17T09:45:57.008Z,175
2017-01-17T09:46:57.781Z,180
2017-01-17T09:47:58.545Z,180
2017-01-17T09:48:59.332Z,190
2017-01-17T09:50:00.095Z,205
2017-01-17T09:51:00.876Z,215
2017-01-17T09:52:01.638Z,210
2017-01-17T09:53:02.420Z,210
2017-01-17T09:54:03.188Z,200
2017-01-17T09:55:03.953Z,185
2017-01-17T09:56:04.745Z,180
2017-01-17T09:57:05.511Z,175
2017-01-17T09:58:06.271Z,200
2017-01-17T09:59:07.040Z,175
2017-01-17T10:00:07.792Z,155
2017-01-17T10:01:08.559Z,145
2017-01-17T10:02:09.332Z,205
2017-01-17T10:03:10.107Z,185
2017-01-17T10:04:10.867Z,135
2017-01-17T10:05:11.640Z,130
2017-01-17T10:06:12.409Z,125
2017-01-17T10:07:13.185Z,125
2017-01-17T10:08:13.958Z,130
2017-01-17T10:09:14.734Z,135
2017-01-17T10:10:15.504Z,140
2017-01-17T10:11:16.261Z,195
2017-01-17T10:12:17.011Z,220
2017-01-17T10:13:17.782Z,230
2017-01-17T10:14:18.543Z,235
2017-01-17T10:15:19.309Z,230
2017-01-17T10:16:20.109Z,225
2017-01-17T10:17:20.907Z,220
2017-01-17T10:18:21.660Z,210
2017-01-17T10:19:22.426Z,205
2017-01-17T10:20:23.197Z,210
2017-01-17T10:21:23.983Z,220
2017-01-17T10:22:24.779Z,225
2017-01-17T10:23:25.535Z,230
2017-01-17T10:24:26.301Z,240
2017-01-17T10:25:27.050Z,245
2017-01-17T10:26:27.869Z,250
2017-01-17T10:27:28.618Z,255
2017-01-17T10:28:29.393Z,265
2017-01-17T10:29:30.179Z,275
2017-01-17T10:30:30.944Z,275
2017-01-17T10:31:31.733Z,275
2017-01-17T10:32:32.476Z,270
2017-01-17T10:33:33.241Z,270
2017-01-17T10:34:34.008Z,270
2017-01-17T10:35:34.749Z,265
2017-01-17T10:36:35.508Z,270
2017-01-17T10:37:36.256Z,275
2017-01-17T10:38:37.010Z,280
2017-01-17T10:39:37.800Z,275
2017-01-17T10:40:38.553Z,275
2017-01-17T10:41:39.300Z,270
2017-01-17T10:42:40.182Z,260
2017-01-17T10:43:40.925Z,245
2017-01-17T10:44:41.663Z,235
2017-01-17T10:45:42.458Z,230
2017-01-17T10:46:43.219Z,225
2017-01-17T10:47:43.975Z,220
2017-01-17T10:48:44.779Z,230
2017-01-17T10:49:45.557Z,240
2017-01-17T10:50:46.312Z,245
2017-01-17T10:51:47.079Z,255
2017-01-17T10:52:47.828Z,265
2017-01-17T10:53:48.583Z,260
2017-01-17T10:54:49.344Z,260
2017-01-17T10:55:50.103Z,265
2017-01-17T10:56:50.869Z,275
2017-01-17T10:57:51.620Z,280
2017-01-17T10:58:52.442Z,280
2017-01-17T10:59:53.201Z,270
2017-01-17T11:00:53.958Z,275
2017-01-17T11:01:54.743Z,290
2017-01-17T11:02:55.497Z,295
2017-01-17T11:03:56.303Z,295
2017-01-17T11:04:57.094Z,280
2017-01-17T11:05:57.872Z,275
2017-01-17T11:06:58.629Z,270
2017-01-17T11:07:59.400Z,270
2017-01-17T11:09:00.152Z,270
2017-01-17T11:10:00.946Z,265
2017-01-17T11:11:01.683Z,275
2017-01-17T11:12:02.437Z,285
2017-01-17T11:13:03.217Z,285
2017-01-17T11:14:03.973Z,285
2017-01-17T11:15:04.727Z,290
2017-01-17T11:16:05.496Z,290
2017-01-17T11:17:06.265Z,270
2017-01-17T11:18:07.028Z,250
2017-01-17T11:19:07.829Z,240
2017-01-17T11:20:08.566Z,230
2017-01-17T11:21:09.326Z,225
2017-01-17T11:22:10.111Z,220
2017-01-17T11:23:10.895Z,215
2017-01-17T11:24:11.641Z,205
2017-01-17T11:25:12.406Z,190
2017-01-17T11:26:13.163Z,190
2017-01-17T11:27:13.950Z,190
2017-01-17T11:28:14.716Z,195
2017-01-17T11:29:15.492Z,190
2017-01-17T11:30:16.271Z,195
2017-01-17T11:31:17.023Z,190
2017-01-17T11:32:17.797Z,190
2017-01-17T11:33:18.551Z,180
2017-01-17T11:34:19.323Z,165
2017-01-17T11:35:20.096Z,165
2017-01-17T11:36:20.872Z,165
2017-01-17T11:37:21.647Z,175
2017-01-17T11:38:22.418Z,175
2017-01-17T11:39:23.194Z,175
2017-01-17T11:40:23.968Z,165
2017-01-17T11:41:24.740Z,155
2017-01-17T11:42:25.494Z,155
2017-01-17T11:43:26.450Z,155
2017-01-17T11:44:27.203Z,155
2017-01-17T11:45:27.991Z,155
2017-01-17T11:46:28.762Z,155
2017-01-17T11:47:29.502Z,155
2017-01-17T11:48:30.269Z,155
2017-01-17T11:49:31.026Z,155
2017-01-17T11:50:31.785Z,155
2017-01-17T11:51:32.530Z,170
2017-01-17T11:52:33.289Z,175
2017-01-17T11:53:34.067Z,180
2017-01-17T11:54:34.816Z,195
2017-01-17T11:55:35.568Z,180
2017-01-17T11:56:36.336Z,175
2017-01-17T11:57:37.100Z,180
2017-01-17T11:58:37.867Z,185
2017-01-17T11:59:38.610Z,185
2017-01-17T12:00:39.370Z,190
2017-01-17T12:01:40.132Z,190
2017-01-17T12:02:40.898Z,190
2017-01-17T12:03:41.644Z,190
2017-01-17T12:04:42.417Z,190
2017-01-17T12:05:43.169Z,190
2017-01-17T12:06:44.005Z,180
2017-01-17T12:07:44.752Z,175
2017-01-17T12:08:45.507Z,170
2017-01-17T12:09:46.266Z,160
2017-01-17T12:10:47.032Z,155
2017-01-17T12:11:47.779Z,155
2017-01-17T12:12:48.523Z,150
2017-01-17T12:13:49.283Z,145
2017-01-17T12:14:50.069Z,145
2017-01-17T12:15:50.823Z,140
2017-01-17T12:16:51.605Z,140
2017-01-17T12:17:52.400Z,140
2017-01-17T12:18:53.178Z,140
2017-01-17T12:19:53.928Z,140
2017-01-17T12:20:54.977Z,140
2017-01-17T12:21:55.537Z,140
2017-01-17T12:22:56.314Z,140
2017-01-17T12:23:57.102Z,135
2017-01-17T12:24:57.860Z,140
2017-01-17T12:25:58.608Z,145
2017-01-17T12:26:59.375Z,145
2017-01-17T12:28:00.201Z,150
2017-01-17T12:29:00.969Z,145
2017-01-17T12:30:01.740Z,150
2017-01-17T12:31:02.515Z,145
2017-01-17T12:32:03.293Z,145
2017-01-17T12:33:04.058Z,145
2017-01-17T12:34:04.922Z,145
2017-01-17T12:35:05.681Z,145
2017-01-17T12:36:06.443Z,145
2017-01-17T12:37:07.248Z,145
2017-01-17T12:38:07.989Z,145
2017-01-17T12:39:08.735Z,140
2017-01-17T12:40:09.534Z,140
2017-01-17T12:41:10.322Z,140
2017-01-17T12:42:11.094Z,140
2017-01-17T12:43:11.858Z,140
2017-01-17T12:44:12.618Z,145
2017-01-17T12:45:13.443Z,140
2017-01-17T12:46:14.253Z,140
2017-01-17T12:47:15.000Z,140
2017-01-17T12:48:15.827Z,145
2017-01-17T12:49:16.546Z,150
2017-01-17T12:50:17.306Z,155
2017-01-17T12:51:18.062Z,170
2017-01-17T12:52:18.797Z,180
2017-01-17T12:53:19.568Z,180
2017-01-17T12:54:20.336Z,190
2017-01-17T12:55:21.137Z,180
2017-01-17T12:56:21.874Z,170
2017-01-17T12:57:22.643Z,160
2017-01-17T12:58:23.392Z,150
2017-01-17T12:59:24.297Z,145
2017-01-17T13:00:25.075Z,150
2017-01-17T13:01:29.552Z,150
2017-01-17T13:02:30.328Z,155
2017-01-17T13:03:31.126Z,160
2017-01-17T13:04:31.899Z,160
2017-01-17T13:05:32.673Z,160
2017-01-17T13:06:33.468Z,160
2017-01-17T13:07:34.225Z,160
2017-01-17T13:08:34.981Z,165
2017-01-17T13:09:35.743Z,170
2017-01-17T13:10:36.494Z,170
2017-01-17T13:11:37.239Z,175
2017-01-17T13:12:38.014Z,165
2017-01-17T13:13:38.772Z,170
2017-01-17T13:14:39.526Z,170
2017-01-17T13:15:40.322Z,170
2017-01-17T13:16:41.055Z,175
2017-01-17T13:17:41.806Z,175
2017-01-17T13:18:42.567Z,170
2017-01-17T13:19:43.362Z,165
2017-01-17T13:20:44.125Z,165
2017-01-17T13:21:44.892Z,155
2017-01-17T13:22:45.693Z,150
2017-01-17T13:23:46.521Z,150
2017-01-17T13:24:47.231Z,145
2017-01-17T13:25:47.988Z,120
2017-01-17T13:26:48.769Z,110
2017-01-17T13:27:49.659Z,120
2017-01-17T13:28:50.445Z,120
2017-01-17T13:29:51.228Z,125
2017-01-17T13:30:52.084Z,125
2017-01-17T13:31:52.777Z,130
2017-01-17T13:32:53.547Z,130
2017-01-17T13:33:54.305Z,125
2017-01-17T13:34:55.077Z,125
2017-01-17T13:35:55.856Z,120
2017-01-17T13:36:56.628Z,120
2017-01-17T13:37:57.456Z,120
2017-01-17T13:38:58.180Z,125
2017-01-17T13:39:59.000Z,125
2017-01-17T13:40:59.753Z,120
2017-01-17T13:42:00.608Z,125
2017-01-17T13:43:01.439Z,125
2017-01-17T13:44:02.214Z,125
2017-01-17T13:45:03.141Z,125
2017-01-17T13:46:03.917Z,130
2017-01-17T13:47:04.735Z,130
2017-01-17T13:48:05.509Z,135
2017-01-17T13:49:06.267Z,135
2017-01-17T13:50:07.088Z,130
2017-01-17T13:51:07.901Z,120
2017-01-17T13:52:08.672Z,115
2017-01-17T13:53:09.526Z,115
2017-01-17T13:54:10.304Z,115
2017-01-17T13:55:11.091Z,115
2017-01-17T13:56:11.910Z,115
2017-01-17T13:57:12.901Z,115
2017-01-17T13:58:13.675Z,115
2017-01-17T13:59:14.446Z,115
2017-01-17T14:00:15.324Z,115
2017-01-17T14:01:16.528Z,115
2017-01-17T14:02:17.307Z,110
2017-01-17T14:03:18.657Z,115
2017-01-17T14:04:20.148Z,115
2017-01-17T14:05:20.924Z,115
2017-01-17T14:06:21.702Z,120
2017-01-17T14:07:22.462Z,115
2017-01-17T14:08:23.367Z,110
2017-01-17T14:09:24.375Z,110
2017-01-17T14:10:25.159Z,110
2017-01-17T14:11:25.956Z,105
2017-01-17T14:12:27.003Z,105
2017-01-17T14:13:27.752Z,105
2017-01-17T14:14:28.543Z,105
2017-01-17T14:15:29.367Z,100
2017-01-17T14:16:30.164Z,95
2017-01-17T14:17:30.919Z,90
2017-01-17T14:18:31.685Z,90
2017-01-17T14:19:32.447Z,90
2017-01-17T14:20:33.235Z,90
2017-01-17T14:21:33.993Z,90
2017-01-17T14:22:36.078Z,85
2017-01-17T14:23:36.856Z,80
2017-01-17T14:24:37.687Z,80
2017-01-17T14:25:38.406Z,80
2017-01-17T14:26:39.203Z,80
2017-01-17T14:27:39.978Z,80
2017-01-17T14:28:40.741Z,75
2017-01-17T14:29:41.491Z,75
2017-01-17T14:30:42.270Z,75